sensor_id;sensor_type;location;lat;lon;timestamp;P1;durP1;ratioP1;P2;durP2;ratioP2
82000;SDS011;71510;50.558;7.258;2023-11-21T00:01:14;82.95;;;26.25;;
82000;SDS011;71510;50.558;7.258;2023-11-21T00:03:42;64.85;;;23.62;;
82000;SDS011;71510;50.558;7.258;2023-11-21T00:06:09;59.88;;;22.95;;
82000;SDS011;71510;50.558;7.258;2023-11-21T00:08:37;62.60;;;23.30;;
82000;SDS011;71510;50.558;7.258;2023-11-21T00:11:04;73.87;;;24.45;;
82000;SDS011;71510;50.558;7.258;2023-11-21T00:13:32;53.63;;;22.70;;
82000;SDS011;71510;50.558;7.258;2023-11-21T00:16:01;47.65;;;21.00;;
82000;SDS011;71510;50.558;7.258;2023-11-21T00:18:28;57.48;;;23.57;;
82000;SDS011;71510;50.558;7.258;2023-11-21T00:20:55;59.25;;;21.85;;
82000;SDS011;71510;50.558;7.258;2023-11-21T00:23:24;61.98;;;23.45;;
82000;SDS011;71510;50.558;7.258;2023-11-21T00:25:52;69.85;;;26.40;;
82000;SDS011;71510;50.558;7.258;2023-11-21T00:28:19;82.45;;;28.47;;
82000;SDS011;71510;50.558;7.258;2023-11-21T00:30:46;76.97;;;26.07;;
82000;SDS011;71510;50.558;7.258;2023-11-21T00:33:14;76.07;;;26.55;;
82000;SDS011;71510;50.558;7.258;2023-11-21T00:35:41;76.77;;;25.45;;
82000;SDS011;71510;50.558;7.258;2023-11-21T00:38:08;77.00;;;24.37;;
82000;SDS011;71510;50.558;7.258;2023-11-21T00:40:35;52.03;;;21.93;;
82000;SDS011;71510;50.558;7.258;2023-11-21T00:43:04;54.42;;;20.20;;
82000;SDS011;71510;50.558;7.258;2023-11-21T00:45:31;60.88;;;23.00;;
82000;SDS011;71510;50.558;7.258;2023-11-21T00:47:59;49.77;;;21.55;;
82000;SDS011;71510;50.558;7.258;2023-11-21T00:50:26;51.98;;;21.60;;
82000;SDS011;71510;50.558;7.258;2023-11-21T00:52:53;50.33;;;21.27;;
82000;SDS011;71510;50.558;7.258;2023-11-21T00:55:21;58.58;;;23.50;;
82000;SDS011;71510;50.558;7.258;2023-11-21T00:57:48;52.95;;;20.70;;
82000;SDS011;71510;50.558;7.258;2023-11-21T01:00:16;46.37;;;19.23;;
82000;SDS011;71510;50.558;7.258;2023-11-21T01:02:44;44.93;;;19.12;;
82000;SDS011;71510;50.558;7.258;2023-11-21T01:05:11;45.70;;;19.73;;
82000;SDS011;71510;50.558;7.258;2023-11-21T01:07:38;45.88;;;20.60;;
82000;SDS011;71510;50.558;7.258;2023-11-21T01:10:06;50.30;;;21.23;;
82000;SDS011;71510;50.558;7.258;2023-11-21T01:12:35;50.20;;;20.25;;
82000;SDS011;71510;50.558;7.258;2023-11-21T01:15:04;51.30;;;20.37;;
82000;SDS011;71510;50.558;7.258;2023-11-21T01:17:33;60.08;;;22.07;;
82000;SDS011;71510;50.558;7.258;2023-11-21T01:20:01;50.92;;;21.25;;
82000;SDS011;71510;50.558;7.258;2023-11-21T01:22:29;51.37;;;22.25;;
82000;SDS011;71510;50.558;7.258;2023-11-21T01:24:56;52.20;;;21.55;;
82000;SDS011;71510;50.558;7.258;2023-11-21T01:27:24;56.88;;;23.05;;
82000;SDS011;71510;50.558;7.258;2023-11-21T01:29:51;52.08;;;22.82;;
82000;SDS011;71510;50.558;7.258;2023-11-21T01:32:19;59.38;;;23.60;;
82000;SDS011;71510;50.558;7.258;2023-11-21T01:34:47;53.80;;;22.93;;
82000;SDS011;71510;50.558;7.258;2023-11-21T01:37:15;54.45;;;22.58;;
82000;SDS011;71510;50.558;7.258;2023-11-21T01:39:43;51.75;;;23.32;;
82000;SDS011;71510;50.558;7.258;2023-11-21T01:42:11;48.92;;;23.15;;
82000;SDS011;71510;50.558;7.258;2023-11-21T01:44:39;49.23;;;23.15;;
82000;SDS011;71510;50.558;7.258;2023-11-21T01:47:06;55.73;;;24.52;;
82000;SDS011;71510;50.558;7.258;2023-11-21T01:49:35;55.38;;;24.05;;
82000;SDS011;71510;50.558;7.258;2023-11-21T01:52:03;68.83;;;25.15;;
82000;SDS011;71510;50.558;7.258;2023-11-21T01:54:30;56.68;;;23.85;;
82000;SDS011;71510;50.558;7.258;2023-11-21T01:56:58;49.05;;;22.73;;
82000;SDS011;71510;50.558;7.258;2023-11-21T01:59:31;48.55;;;21.52;;
82000;SDS011;71510;50.558;7.258;2023-11-21T02:01:58;47.20;;;21.93;;
82000;SDS011;71510;50.558;7.258;2023-11-21T02:04:25;43.35;;;21.70;;
82000;SDS011;71510;50.558;7.258;2023-11-21T02:06:53;46.08;;;22.40;;
82000;SDS011;71510;50.558;7.258;2023-11-21T02:09:27;47.25;;;20.50;;
82000;SDS011;71510;50.558;7.258;2023-11-21T02:11:56;49.00;;;22.67;;
82000;SDS011;71510;50.558;7.258;2023-11-21T02:14:25;42.17;;;21.62;;
82000;SDS011;71510;50.558;7.258;2023-11-21T02:16:54;53.40;;;22.52;;
82000;SDS011;71510;50.558;7.258;2023-11-21T02:19:23;46.10;;;23.30;;
82000;SDS011;71510;50.558;7.258;2023-11-21T02:21:52;43.83;;;23.83;;
82000;SDS011;71510;50.558;7.258;2023-11-21T02:24:22;42.38;;;22.27;;
82000;SDS011;71510;50.558;7.258;2023-11-21T02:26:50;39.83;;;23.32;;
82000;SDS011;71510;50.558;7.258;2023-11-21T02:29:18;39.65;;;22.07;;
82000;SDS011;71510;50.558;7.258;2023-11-21T02:31:47;34.15;;;21.50;;
82000;SDS011;71510;50.558;7.258;2023-11-21T02:34:15;36.13;;;21.30;;
82000;SDS011;71510;50.558;7.258;2023-11-21T02:36:43;42.83;;;22.70;;
82000;SDS011;71510;50.558;7.258;2023-11-21T02:39:11;48.05;;;25.65;;
82000;SDS011;71510;50.558;7.258;2023-11-21T02:41:39;38.35;;;23.45;;
82000;SDS011;71510;50.558;7.258;2023-11-21T02:44:07;39.70;;;22.30;;
82000;SDS011;71510;50.558;7.258;2023-11-21T02:46:34;31.40;;;21.55;;
82000;SDS011;71510;50.558;7.258;2023-11-21T02:49:02;31.07;;;20.25;;
82000;SDS011;71510;50.558;7.258;2023-11-21T02:51:34;36.68;;;21.35;;
82000;SDS011;71510;50.558;7.258;2023-11-21T02:53:58;32.38;;;21.55;;
82000;SDS011;71510;50.558;7.258;2023-11-21T02:56:27;34.27;;;21.77;;
82000;SDS011;71510;50.558;7.258;2023-11-21T02:58:58;28.35;;;21.48;;
82000;SDS011;71510;50.558;7.258;2023-11-21T03:01:26;24.63;;;18.32;;
82000;SDS011;71510;50.558;7.258;2023-11-21T03:03:53;26.82;;;18.35;;
82000;SDS011;71510;50.558;7.258;2023-11-21T03:06:22;28.95;;;19.32;;
82000;SDS011;71510;50.558;7.258;2023-11-21T03:08:49;28.90;;;21.30;;
82000;SDS011;71510;50.558;7.258;2023-11-21T03:11:17;35.70;;;21.25;;
82000;SDS011;71510;50.558;7.258;2023-11-21T03:13:44;28.38;;;19.95;;
82000;SDS011;71510;50.558;7.258;2023-11-21T03:16:12;28.62;;;19.45;;
82000;SDS011;71510;50.558;7.258;2023-11-21T03:18:39;28.87;;;20.15;;
82000;SDS011;71510;50.558;7.258;2023-11-21T03:21:07;31.00;;;20.30;;
82000;SDS011;71510;50.558;7.258;2023-11-21T03:23:36;32.30;;;21.75;;
82000;SDS011;71510;50.558;7.258;2023-11-21T03:26:04;34.35;;;20.60;;
82000;SDS011;71510;50.558;7.258;2023-11-21T03:28:32;34.75;;;21.27;;
82000;SDS011;71510;50.558;7.258;2023-11-21T03:31:00;35.17;;;19.82;;
82000;SDS011;71510;50.558;7.258;2023-11-21T03:33:27;31.73;;;20.27;;
82000;SDS011;71510;50.558;7.258;2023-11-21T03:35:55;36.00;;;21.77;;
82000;SDS011;71510;50.558;7.258;2023-11-21T03:38:22;37.20;;;21.80;;
82000;SDS011;71510;50.558;7.258;2023-11-21T03:40:50;33.00;;;21.37;;
82000;SDS011;71510;50.558;7.258;2023-11-21T03:43:17;36.55;;;22.07;;
82000;SDS011;71510;50.558;7.258;2023-11-21T03:45:45;42.03;;;23.55;;
82000;SDS011;71510;50.558;7.258;2023-11-21T03:48:12;40.12;;;22.30;;
82000;SDS011;71510;50.558;7.258;2023-11-21T03:50:40;31.20;;;21.20;;
82000;SDS011;71510;50.558;7.258;2023-11-21T03:53:07;40.98;;;23.27;;
82000;SDS011;71510;50.558;7.258;2023-11-21T03:55:34;44.77;;;24.23;;
82000;SDS011;71510;50.558;7.258;2023-11-21T03:58:01;38.73;;;24.20;;
82000;SDS011;71510;50.558;7.258;2023-11-21T04:00:29;41.33;;;26.40;;
82000;SDS011;71510;50.558;7.258;2023-11-21T04:02:56;43.10;;;27.65;;
82000;SDS011;71510;50.558;7.258;2023-11-21T04:05:24;35.80;;;26.40;;
82000;SDS011;71510;50.558;7.258;2023-11-21T04:07:51;45.48;;;25.82;;
82000;SDS011;71510;50.558;7.258;2023-11-21T04:10:18;39.65;;;27.05;;
82000;SDS011;71510;50.558;7.258;2023-11-21T04:12:45;39.83;;;26.30;;
82000;SDS011;71510;50.558;7.258;2023-11-21T04:15:13;39.38;;;25.40;;
82000;SDS011;71510;50.558;7.258;2023-11-21T04:17:41;40.55;;;26.42;;
82000;SDS011;71510;50.558;7.258;2023-11-21T04:20:09;48.92;;;28.77;;
82000;SDS011;71510;50.558;7.258;2023-11-21T04:22:37;46.70;;;27.10;;
82000;SDS011;71510;50.558;7.258;2023-11-21T04:25:06;43.30;;;26.48;;
82000;SDS011;71510;50.558;7.258;2023-11-21T04:27:33;39.85;;;25.77;;
82000;SDS011;71510;50.558;7.258;2023-11-21T04:30:00;42.03;;;25.88;;
82000;SDS011;71510;50.558;7.258;2023-11-21T04:32:28;44.58;;;24.75;;
82000;SDS011;71510;50.558;7.258;2023-11-21T04:34:55;38.92;;;23.05;;
82000;SDS011;71510;50.558;7.258;2023-11-21T04:37:22;38.85;;;24.30;;
82000;SDS011;71510;50.558;7.258;2023-11-21T04:39:50;38.00;;;24.95;;
82000;SDS011;71510;50.558;7.258;2023-11-21T04:42:18;38.10;;;23.67;;
82000;SDS011;71510;50.558;7.258;2023-11-21T04:44:45;37.98;;;28.02;;
82000;SDS011;71510;50.558;7.258;2023-11-21T04:47:12;42.70;;;28.12;;
82000;SDS011;71510;50.558;7.258;2023-11-21T04:49:45;46.02;;;29.85;;
82000;SDS011;71510;50.558;7.258;2023-11-21T04:52:09;45.83;;;31.37;;
82000;SDS011;71510;50.558;7.258;2023-11-21T04:54:37;54.30;;;29.82;;
82000;SDS011;71510;50.558;7.258;2023-11-21T04:57:06;43.25;;;28.15;;
82000;SDS011;71510;50.558;7.258;2023-11-21T04:59:36;45.77;;;28.40;;
82000;SDS011;71510;50.558;7.258;2023-11-21T05:02:03;51.30;;;31.97;;
82000;SDS011;71510;50.558;7.258;2023-11-21T05:04:31;51.42;;;32.08;;
82000;SDS011;71510;50.558;7.258;2023-11-21T05:06:59;44.45;;;30.75;;
82000;SDS011;71510;50.558;7.258;2023-11-21T05:09:27;46.33;;;31.68;;
82000;SDS011;71510;50.558;7.258;2023-11-21T05:11:56;52.55;;;31.50;;
82000;SDS011;71510;50.558;7.258;2023-11-21T05:14:23;50.65;;;32.35;;
82000;SDS011;71510;50.558;7.258;2023-11-21T05:16:51;51.13;;;33.13;;
82000;SDS011;71510;50.558;7.258;2023-11-21T05:19:18;55.45;;;35.92;;
82000;SDS011;71510;50.558;7.258;2023-11-21T05:21:45;51.70;;;36.13;;
82000;SDS011;71510;50.558;7.258;2023-11-21T05:24:13;53.90;;;37.98;;
82000;SDS011;71510;50.558;7.258;2023-11-21T05:26:41;56.28;;;39.05;;
82000;SDS011;71510;50.558;7.258;2023-11-21T05:29:09;59.80;;;38.20;;
82000;SDS011;71510;50.558;7.258;2023-11-21T05:31:37;60.50;;;39.45;;
82000;SDS011;71510;50.558;7.258;2023-11-21T05:34:04;70.47;;;41.58;;
82000;SDS011;71510;50.558;7.258;2023-11-21T05:36:31;78.05;;;39.45;;
82000;SDS011;71510;50.558;7.258;2023-11-21T05:39:00;63.58;;;38.95;;
82000;SDS011;71510;50.558;7.258;2023-11-21T05:41:27;69.45;;;39.95;;
82000;SDS011;71510;50.558;7.258;2023-11-21T05:43:54;67.60;;;40.90;;
82000;SDS011;71510;50.558;7.258;2023-11-21T05:46:22;85.20;;;45.80;;
82000;SDS011;71510;50.558;7.258;2023-11-21T05:48:49;64.30;;;37.23;;
82000;SDS011;71510;50.558;7.258;2023-11-21T05:51:16;77.05;;;40.88;;
82000;SDS011;71510;50.558;7.258;2023-11-21T05:53:44;65.80;;;38.75;;
82000;SDS011;71510;50.558;7.258;2023-11-21T05:56:11;60.98;;;37.58;;
82000;SDS011;71510;50.558;7.258;2023-11-21T05:58:39;57.25;;;33.35;;
82000;SDS011;71510;50.558;7.258;2023-11-21T06:01:07;62.25;;;34.80;;
82000;SDS011;71510;50.558;7.258;2023-11-21T06:03:35;57.17;;;36.90;;
82000;SDS011;71510;50.558;7.258;2023-11-21T06:06:02;53.60;;;36.93;;
82000;SDS011;71510;50.558;7.258;2023-11-21T06:08:30;57.03;;;36.83;;
82000;SDS011;71510;50.558;7.258;2023-11-21T06:10:58;55.17;;;37.35;;
82000;SDS011;71510;50.558;7.258;2023-11-21T06:13:25;58.30;;;35.43;;
82000;SDS011;71510;50.558;7.258;2023-11-21T06:15:52;59.60;;;37.35;;
82000;SDS011;71510;50.558;7.258;2023-11-21T06:18:20;61.10;;;38.45;;
82000;SDS011;71510;50.558;7.258;2023-11-21T06:20:47;62.05;;;36.98;;
82000;SDS011;71510;50.558;7.258;2023-11-21T06:23:14;58.85;;;36.70;;
82000;SDS011;71510;50.558;7.258;2023-11-21T06:25:42;61.95;;;36.08;;
82000;SDS011;71510;50.558;7.258;2023-11-21T06:28:10;58.45;;;36.40;;
82000;SDS011;71510;50.558;7.258;2023-11-21T06:30:37;62.58;;;38.13;;
82000;SDS011;71510;50.558;7.258;2023-11-21T06:33:04;65.85;;;38.15;;
82000;SDS011;71510;50.558;7.258;2023-11-21T06:35:32;72.55;;;41.60;;
82000;SDS011;71510;50.558;7.258;2023-11-21T06:38:01;67.10;;;37.83;;
82000;SDS011;71510;50.558;7.258;2023-11-21T06:40:29;59.93;;;35.52;;
82000;SDS011;71510;50.558;7.258;2023-11-21T06:42:56;67.00;;;37.78;;
82000;SDS011;71510;50.558;7.258;2023-11-21T06:45:25;70.75;;;39.25;;
82000;SDS011;71510;50.558;7.258;2023-11-21T06:47:52;71.92;;;41.23;;
82000;SDS011;71510;50.558;7.258;2023-11-21T06:50:19;81.55;;;42.53;;
82000;SDS011;71510;50.558;7.258;2023-11-21T06:52:47;67.37;;;38.58;;
82000;SDS011;71510;50.558;7.258;2023-11-21T06:55:14;76.00;;;40.92;;
82000;SDS011;71510;50.558;7.258;2023-11-21T06:57:42;66.60;;;38.00;;
82000;SDS011;71510;50.558;7.258;2023-11-21T07:00:11;68.25;;;40.03;;
82000;SDS011;71510;50.558;7.258;2023-11-21T07:02:38;65.72;;;38.98;;
82000;SDS011;71510;50.558;7.258;2023-11-21T07:05:06;68.05;;;38.53;;
82000;SDS011;71510;50.558;7.258;2023-11-21T07:07:33;62.00;;;37.98;;
82000;SDS011;71510;50.558;7.258;2023-11-21T07:10:01;67.67;;;37.33;;
82000;SDS011;71510;50.558;7.258;2023-11-21T07:12:30;73.20;;;39.70;;
82000;SDS011;71510;50.558;7.258;2023-11-21T07:14:57;79.15;;;42.23;;
82000;SDS011;71510;50.558;7.258;2023-11-21T07:17:25;75.52;;;40.30;;
82000;SDS011;71510;50.558;7.258;2023-11-21T07:19:52;68.50;;;38.67;;
82000;SDS011;71510;50.558;7.258;2023-11-21T07:22:19;74.12;;;40.30;;
82000;SDS011;71510;50.558;7.258;2023-11-21T07:24:48;70.28;;;38.23;;
82000;SDS011;71510;50.558;7.258;2023-11-21T07:27:17;67.17;;;39.15;;
82000;SDS011;71510;50.558;7.258;2023-11-21T07:29:45;68.00;;;36.90;;
82000;SDS011;71510;50.558;7.258;2023-11-21T07:32:12;74.40;;;39.53;;
82000;SDS011;71510;50.558;7.258;2023-11-21T07:34:41;65.78;;;35.45;;
82000;SDS011;71510;50.558;7.258;2023-11-21T07:37:08;68.70;;;34.63;;
82000;SDS011;71510;50.558;7.258;2023-11-21T07:39:35;70.15;;;36.15;;
82000;SDS011;71510;50.558;7.258;2023-11-21T07:42:03;67.50;;;35.90;;
82000;SDS011;71510;50.558;7.258;2023-11-21T07:44:31;65.40;;;37.70;;
82000;SDS011;71510;50.558;7.258;2023-11-21T07:46:58;67.58;;;36.65;;
82000;SDS011;71510;50.558;7.258;2023-11-21T07:49:25;62.67;;;35.83;;
82000;SDS011;71510;50.558;7.258;2023-11-21T07:51:53;66.05;;;35.50;;
82000;SDS011;71510;50.558;7.258;2023-11-21T07:54:20;68.97;;;36.63;;
82000;SDS011;71510;50.558;7.258;2023-11-21T07:56:47;57.15;;;32.38;;
82000;SDS011;71510;50.558;7.258;2023-11-21T07:59:15;63.78;;;32.42;;
82000;SDS011;71510;50.558;7.258;2023-11-21T08:01:43;57.75;;;32.73;;
82000;SDS011;71510;50.558;7.258;2023-11-21T08:04:12;60.48;;;31.97;;
82000;SDS011;71510;50.558;7.258;2023-11-21T08:06:39;52.73;;;29.67;;
82000;SDS011;71510;50.558;7.258;2023-11-21T08:09:07;69.22;;;32.25;;
82000;SDS011;71510;50.558;7.258;2023-11-21T08:11:35;59.63;;;31.48;;
82000;SDS011;71510;50.558;7.258;2023-11-21T08:14:04;62.70;;;31.80;;
82000;SDS011;71510;50.558;7.258;2023-11-21T08:16:31;61.42;;;31.55;;
82000;SDS011;71510;50.558;7.258;2023-11-21T08:18:59;58.60;;;32.25;;
82000;SDS011;71510;50.558;7.258;2023-11-21T08:21:26;59.55;;;31.82;;
82000;SDS011;71510;50.558;7.258;2023-11-21T08:23:55;62.55;;;29.42;;
82000;SDS011;71510;50.558;7.258;2023-11-21T08:26:22;54.70;;;28.55;;
82000;SDS011;71510;50.558;7.258;2023-11-21T08:28:50;55.10;;;27.42;;
82000;SDS011;71510;50.558;7.258;2023-11-21T08:31:28;54.95;;;28.40;;
82000;SDS011;71510;50.558;7.258;2023-11-21T08:33:48;50.92;;;28.15;;
82000;SDS011;71510;50.558;7.258;2023-11-21T08:36:15;46.28;;;24.85;;
82000;SDS011;71510;50.558;7.258;2023-11-21T08:38:42;44.55;;;24.10;;
82000;SDS011;71510;50.558;7.258;2023-11-21T08:41:09;49.18;;;25.52;;
82000;SDS011;71510;50.558;7.258;2023-11-21T08:43:37;55.55;;;26.45;;
82000;SDS011;71510;50.558;7.258;2023-11-21T08:46:06;42.88;;;24.00;;
82000;SDS011;71510;50.558;7.258;2023-11-21T08:48:35;37.30;;;21.85;;
82000;SDS011;71510;50.558;7.258;2023-11-21T08:51:03;47.38;;;22.77;;
82000;SDS011;71510;50.558;7.258;2023-11-21T08:53:31;41.53;;;22.32;;
82000;SDS011;71510;50.558;7.258;2023-11-21T08:55:59;41.15;;;21.33;;
82000;SDS011;71510;50.558;7.258;2023-11-21T08:58:26;39.80;;;19.05;;
82000;SDS011;71510;50.558;7.258;2023-11-21T09:00:54;38.38;;;18.92;;
82000;SDS011;71510;50.558;7.258;2023-11-21T09:03:21;33.23;;;19.85;;
82000;SDS011;71510;50.558;7.258;2023-11-21T09:05:48;36.68;;;20.40;;
82000;SDS011;71510;50.558;7.258;2023-11-21T09:08:16;30.50;;;18.00;;
82000;SDS011;71510;50.558;7.258;2023-11-21T09:10:43;38.05;;;19.75;;
82000;SDS011;71510;50.558;7.258;2023-11-21T09:13:12;44.40;;;21.55;;
82000;SDS011;71510;50.558;7.258;2023-11-21T09:15:40;39.78;;;20.32;;
82000;SDS011;71510;50.558;7.258;2023-11-21T09:18:07;34.05;;;19.82;;
82000;SDS011;71510;50.558;7.258;2023-11-21T09:20:34;40.25;;;21.70;;
82000;SDS011;71510;50.558;7.258;2023-11-21T09:23:01;33.98;;;20.77;;
82000;SDS011;71510;50.558;7.258;2023-11-21T09:25:29;39.85;;;22.67;;
82000;SDS011;71510;50.558;7.258;2023-11-21T09:27:56;36.50;;;22.58;;
82000;SDS011;71510;50.558;7.258;2023-11-21T09:30:24;41.23;;;23.00;;
82000;SDS011;71510;50.558;7.258;2023-11-21T09:32:51;36.48;;;22.50;;
82000;SDS011;71510;50.558;7.258;2023-11-21T09:35:19;40.45;;;23.45;;
82000;SDS011;71510;50.558;7.258;2023-11-21T09:37:46;45.00;;;23.20;;
82000;SDS011;71510;50.558;7.258;2023-11-21T09:40:13;39.48;;;23.95;;
82000;SDS011;71510;50.558;7.258;2023-11-21T09:43:28;39.73;;;21.02;;
82000;SDS011;71510;50.558;7.258;2023-11-21T09:45:17;37.15;;;23.30;;
82000;SDS011;71510;50.558;7.258;2023-11-21T09:47:42;35.63;;;21.87;;
82000;SDS011;71510;50.558;7.258;2023-11-21T09:50:09;39.92;;;21.27;;
82000;SDS011;71510;50.558;7.258;2023-11-21T09:52:57;39.23;;;23.40;;
82000;SDS011;71510;50.558;7.258;2023-11-21T09:55:24;38.50;;;21.73;;
82000;SDS011;71510;50.558;7.258;2023-11-21T09:57:53;40.43;;;24.92;;
82000;SDS011;71510;50.558;7.258;2023-11-21T10:00:22;36.28;;;23.30;;
82000;SDS011;71510;50.558;7.258;2023-11-21T10:02:53;32.33;;;20.80;;
82000;SDS011;71510;50.558;7.258;2023-11-21T10:05:21;33.85;;;21.33;;
82000;SDS011;71510;50.558;7.258;2023-11-21T10:07:49;43.78;;;24.72;;
82000;SDS011;71510;50.558;7.258;2023-11-21T10:10:22;39.05;;;24.02;;
82000;SDS011;71510;50.558;7.258;2023-11-21T10:12:48;35.70;;;22.15;;
82000;SDS011;71510;50.558;7.258;2023-11-21T10:15:15;38.28;;;21.55;;
82000;SDS011;71510;50.558;7.258;2023-11-21T10:17:44;39.25;;;23.32;;
82000;SDS011;71510;50.558;7.258;2023-11-21T10:20:12;37.15;;;22.15;;
82000;SDS011;71510;50.558;7.258;2023-11-21T10:22:40;37.83;;;21.48;;
82000;SDS011;71510;50.558;7.258;2023-11-21T10:25:08;39.88;;;22.07;;
82000;SDS011;71510;50.558;7.258;2023-11-21T10:27:36;41.02;;;21.82;;
82000;SDS011;71510;50.558;7.258;2023-11-21T10:30:07;40.33;;;22.25;;
82000;SDS011;71510;50.558;7.258;2023-11-21T10:32:42;40.78;;;23.10;;
82000;SDS011;71510;50.558;7.258;2023-11-21T10:35:09;36.48;;;22.82;;
82000;SDS011;71510;50.558;7.258;2023-11-21T10:37:42;39.90;;;23.83;;
82000;SDS011;71510;50.558;7.258;2023-11-21T10:40:07;39.05;;;23.25;;
82000;SDS011;71510;50.558;7.258;2023-11-21T10:42:36;45.60;;;24.32;;
82000;SDS011;71510;50.558;7.258;2023-11-21T10:45:03;38.63;;;24.98;;
82000;SDS011;71510;50.558;7.258;2023-11-21T10:47:32;39.85;;;25.15;;
82000;SDS011;71510;50.558;7.258;2023-11-21T10:50:02;39.18;;;24.40;;
82000;SDS011;71510;50.558;7.258;2023-11-21T10:52:30;42.80;;;24.37;;
82000;SDS011;71510;50.558;7.258;2023-11-21T10:54:57;38.42;;;25.20;;
82000;SDS011;71510;50.558;7.258;2023-11-21T10:57:25;38.40;;;25.23;;
82000;SDS011;71510;50.558;7.258;2023-11-21T10:59:52;38.98;;;23.87;;
82000;SDS011;71510;50.558;7.258;2023-11-21T11:02:24;45.70;;;25.65;;
82000;SDS011;71510;50.558;7.258;2023-11-21T11:04:54;43.13;;;25.50;;
82000;SDS011;71510;50.558;7.258;2023-11-21T11:07:25;48.00;;;26.75;;
82000;SDS011;71510;50.558;7.258;2023-11-21T11:09:54;38.88;;;24.98;;
82000;SDS011;71510;50.558;7.258;2023-11-21T11:12:21;42.90;;;26.27;;
82000;SDS011;71510;50.558;7.258;2023-11-21T11:14:48;43.17;;;26.77;;
82000;SDS011;71510;50.558;7.258;2023-11-21T11:17:16;39.88;;;24.32;;
82000;SDS011;71510;50.558;7.258;2023-11-21T11:19:46;43.25;;;26.07;;
82000;SDS011;71510;50.558;7.258;2023-11-21T11:22:19;44.00;;;26.52;;
82000;SDS011;71510;50.558;7.258;2023-11-21T11:25:08;44.90;;;27.10;;
82000;SDS011;71510;50.558;7.258;2023-11-21T11:27:37;43.78;;;27.05;;
82000;SDS011;71510;50.558;7.258;2023-11-21T11:32:38;43.98;;;27.42;;
82000;SDS011;71510;50.558;7.258;2023-11-21T11:35:04;37.40;;;25.05;;
82000;SDS011;71510;50.558;7.258;2023-11-21T11:37:31;47.95;;;27.00;;
82000;SDS011;71510;50.558;7.258;2023-11-21T11:39:58;44.18;;;27.80;;
82000;SDS011;71510;50.558;7.258;2023-11-21T11:42:26;33.35;;;21.97;;
82000;SDS011;71510;50.558;7.258;2023-11-21T11:44:55;41.02;;;24.80;;
82000;SDS011;71510;50.558;7.258;2023-11-21T11:52:40;33.35;;;23.75;;
82000;SDS011;71510;50.558;7.258;2023-11-21T11:55:13;47.13;;;28.60;;
82000;SDS011;71510;50.558;7.258;2023-11-21T11:57:37;46.98;;;28.15;;
82000;SDS011;71510;50.558;7.258;2023-11-21T12:00:12;37.75;;;25.02;;
82000;SDS011;71510;50.558;7.258;2023-11-21T12:02:42;40.98;;;26.10;;
82000;SDS011;71510;50.558;7.258;2023-11-21T12:05:10;39.92;;;25.97;;
82000;SDS011;71510;50.558;7.258;2023-11-21T12:07:41;39.85;;;26.48;;
82000;SDS011;71510;50.558;7.258;2023-11-21T12:10:08;40.17;;;27.58;;
82000;SDS011;71510;50.558;7.258;2023-11-21T12:12:37;44.53;;;27.00;;
82000;SDS011;71510;50.558;7.258;2023-11-21T12:15:05;37.93;;;26.37;;
82000;SDS011;71510;50.558;7.258;2023-11-21T12:17:32;40.55;;;27.90;;
82000;SDS011;71510;50.558;7.258;2023-11-21T12:20:07;37.33;;;27.77;;
82000;SDS011;71510;50.558;7.258;2023-11-21T12:22:32;39.88;;;26.95;;
82000;SDS011;71510;50.558;7.258;2023-11-21T12:24:59;39.48;;;25.15;;
82000;SDS011;71510;50.558;7.258;2023-11-21T12:27:27;43.90;;;28.27;;
82000;SDS011;71510;50.558;7.258;2023-11-21T12:29:55;45.65;;;28.30;;
82000;SDS011;71510;50.558;7.258;2023-11-21T12:32:22;38.90;;;25.65;;
82000;SDS011;71510;50.558;7.258;2023-11-21T12:34:49;39.88;;;25.05;;
82000;SDS011;71510;50.558;7.258;2023-11-21T12:37:16;38.00;;;26.70;;
82000;SDS011;71510;50.558;7.258;2023-11-21T12:39:44;46.98;;;28.10;;
82000;SDS011;71510;50.558;7.258;2023-11-21T12:42:12;41.98;;;29.63;;
82000;SDS011;71510;50.558;7.258;2023-11-21T12:44:39;42.17;;;28.65;;
82000;SDS011;71510;50.558;7.258;2023-11-21T12:47:08;40.55;;;27.55;;
82000;SDS011;71510;50.558;7.258;2023-11-21T12:49:35;42.60;;;27.15;;
82000;SDS011;71510;50.558;7.258;2023-11-21T12:52:02;40.33;;;26.65;;
82000;SDS011;71510;50.558;7.258;2023-11-21T12:54:30;40.85;;;26.95;;
82000;SDS011;71510;50.558;7.258;2023-11-21T12:56:59;37.70;;;25.27;;
82000;SDS011;71510;50.558;7.258;2023-11-21T12:59:28;38.27;;;27.80;;
82000;SDS011;71510;50.558;7.258;2023-11-21T13:01:56;45.83;;;28.73;;
82000;SDS011;71510;50.558;7.258;2023-11-21T13:04:32;36.00;;;24.05;;
82000;SDS011;71510;50.558;7.258;2023-11-21T13:07:04;35.75;;;24.45;;
82000;SDS011;71510;50.558;7.258;2023-11-21T13:09:36;44.70;;;27.48;;
82000;SDS011;71510;50.558;7.258;2023-11-21T13:12:03;35.88;;;25.00;;
82000;SDS011;71510;50.558;7.258;2023-11-21T13:14:31;43.28;;;24.25;;
82000;SDS011;71510;50.558;7.258;2023-11-21T13:16:58;37.60;;;25.32;;
82000;SDS011;71510;50.558;7.258;2023-11-21T13:19:25;38.58;;;22.82;;
82000;SDS011;71510;50.558;7.258;2023-11-21T13:21:53;27.67;;;20.85;;
82000;SDS011;71510;50.558;7.258;2023-11-21T13:24:20;32.75;;;20.43;;
82000;SDS011;71510;50.558;7.258;2023-11-21T13:26:48;34.38;;;21.77;;
82000;SDS011;71510;50.558;7.258;2023-11-21T13:29:16;38.48;;;24.32;;
82000;SDS011;71510;50.558;7.258;2023-11-21T13:31:43;38.63;;;23.80;;
82000;SDS011;71510;50.558;7.258;2023-11-21T13:34:11;35.92;;;24.02;;
82000;SDS011;71510;50.558;7.258;2023-11-21T13:36:40;39.50;;;27.13;;
82000;SDS011;71510;50.558;7.258;2023-11-21T13:39:08;37.65;;;24.30;;
82000;SDS011;71510;50.558;7.258;2023-11-21T13:41:37;38.25;;;24.65;;
82000;SDS011;71510;50.558;7.258;2023-11-21T13:44:05;39.30;;;23.27;;
82000;SDS011;71510;50.558;7.258;2023-11-21T13:46:43;38.65;;;25.70;;
82000;SDS011;71510;50.558;7.258;2023-11-21T13:49:11;37.88;;;25.08;;
82000;SDS011;71510;50.558;7.258;2023-11-21T13:51:40;41.15;;;24.25;;
82000;SDS011;71510;50.558;7.258;2023-11-21T13:54:09;35.78;;;22.55;;
82000;SDS011;71510;50.558;7.258;2023-11-21T13:56:36;39.30;;;24.27;;
82000;SDS011;71510;50.558;7.258;2023-11-21T13:59:05;37.25;;;23.90;;
82000;SDS011;71510;50.558;7.258;2023-11-21T14:01:51;35.30;;;23.60;;
82000;SDS011;71510;50.558;7.258;2023-11-21T14:04:23;41.18;;;25.35;;
82000;SDS011;71510;50.558;7.258;2023-11-21T14:06:58;45.38;;;24.98;;
82000;SDS011;71510;50.558;7.258;2023-11-21T14:09:27;39.15;;;24.25;;
82000;SDS011;71510;50.558;7.258;2023-11-21T14:11:56;43.23;;;24.05;;
82000;SDS011;71510;50.558;7.258;2023-11-21T14:14:24;40.63;;;23.12;;
82000;SDS011;71510;50.558;7.258;2023-11-21T14:16:52;41.63;;;23.95;;
82000;SDS011;71510;50.558;7.258;2023-11-21T14:19:19;38.63;;;25.17;;
82000;SDS011;71510;50.558;7.258;2023-11-21T14:21:47;39.03;;;23.85;;
82000;SDS011;71510;50.558;7.258;2023-11-21T14:24:19;35.35;;;22.60;;
82000;SDS011;71510;50.558;7.258;2023-11-21T14:26:47;40.23;;;25.32;;
82000;SDS011;71510;50.558;7.258;2023-11-21T14:29:17;36.75;;;23.67;;
82000;SDS011;71510;50.558;7.258;2023-11-21T14:31:47;39.23;;;24.15;;
82000;SDS011;71510;50.558;7.258;2023-11-21T14:34:14;38.02;;;22.58;;